Portada
METAR-TAF:

METAR-TAF

Aeropuertos :

Henderson City-County Airport

Henderson, Kentucky, Estados Unidos

latitud: 37-49N, longitud: 087-41W, altitud: 117 m

Observación

El informe se hizo hace 49 minutos, a las 19:56 UTC
Viento 3 kt del sur
Temperatura 31°C
Humedad 55%
Presión 1024 hPa
Visibilidad: 16.1 km
Nubes dispersas a una altura de 4600 ft

METAR: KEHR 191956Z AUTO 18003KT 10SM SCT046 31/21 A3023 RMK AO2 SLP232 T03060211

Hora: 15:45 (20:45 UTC)


TAF: falta

Observaciones y pronósticos meteorológicos de más de 4000 aeropuertos (mensajes METAR y TAF).

Los puntos amarillos y rojos representan las estaciones disponibles.

Ponga el ratón en el punto deseado para ver el nombre de la estación.

Haga clic para ver las observaciones y los pronósticos meteorológicos.

Para cambiar el mapa : haga clic en los botones verdes con una cruz de color negro para hacer un zoom, en el botón verde con un guión para alejar o en las flechas verdes para mapas adyacentes.


METAR-TAF: